sensor_id;sensor_type;location;lat;lon;timestamp;P1;durP1;ratioP1;P2;durP2;ratioP2
69253;SDS011;56364;41.816;12.448;2023-03-25T00:02:03;16.70;;;6.25;;
69253;SDS011;56364;41.816;12.448;2023-03-25T00:04:32;12.82;;;6.10;;
69253;SDS011;56364;41.816;12.448;2023-03-25T00:07:10;13.50;;;6.28;;
69253;SDS011;56364;41.816;12.448;2023-03-25T00:12:17;15.60;;;6.47;;
69253;SDS011;56364;41.816;12.448;2023-03-25T00:17:47;8.35;;;5.03;;
69253;SDS011;56364;41.816;12.448;2023-03-25T00:25:22;10.30;;;5.28;;
69253;SDS011;56364;41.816;12.448;2023-03-25T00:27:51;14.98;;;6.18;;
69253;SDS011;56364;41.816;12.448;2023-03-25T00:30:20;14.65;;;5.85;;
69253;SDS011;56364;41.816;12.448;2023-03-25T00:32:51;11.93;;;6.03;;
69253;SDS011;56364;41.816;12.448;2023-03-25T00:35:19;12.48;;;5.70;;
69253;SDS011;56364;41.816;12.448;2023-03-25T00:37:50;10.27;;;5.10;;
69253;SDS011;56364;41.816;12.448;2023-03-25T00:40:22;14.93;;;6.25;;
69253;SDS011;56364;41.816;12.448;2023-03-25T00:45:18;16.10;;;6.45;;
69253;SDS011;56364;41.816;12.448;2023-03-25T00:47:46;13.05;;;6.07;;
69253;SDS011;56364;41.816;12.448;2023-03-25T00:52:49;19.00;;;6.45;;
69253;SDS011;56364;41.816;12.448;2023-03-25T00:55:17;14.07;;;6.00;;
69253;SDS011;56364;41.816;12.448;2023-03-25T00:57:44;13.20;;;6.57;;
69253;SDS011;56364;41.816;12.448;2023-03-25T01:00:14;13.05;;;5.90;;
69253;SDS011;56364;41.816;12.448;2023-03-25T01:02:41;12.75;;;6.50;;
69253;SDS011;56364;41.816;12.448;2023-03-25T01:05:08;11.10;;;5.72;;
69253;SDS011;56364;41.816;12.448;2023-03-25T01:10:14;13.13;;;6.15;;
69253;SDS011;56364;41.816;12.448;2023-03-25T01:17:44;13.75;;;6.05;;
69253;SDS011;56364;41.816;12.448;2023-03-25T01:20:14;11.88;;;5.72;;
69253;SDS011;56364;41.816;12.448;2023-03-25T01:25:07;13.77;;;5.68;;
69253;SDS011;56364;41.816;12.448;2023-03-25T01:27:34;12.25;;;5.78;;
69253;SDS011;56364;41.816;12.448;2023-03-25T01:30:05;16.02;;;6.80;;
69253;SDS011;56364;41.816;12.448;2023-03-25T01:32:32;12.23;;;5.32;;
69253;SDS011;56364;41.816;12.448;2023-03-25T01:34:58;11.35;;;5.63;;
69253;SDS011;56364;41.816;12.448;2023-03-25T01:37:24;13.82;;;5.43;;
69253;SDS011;56364;41.816;12.448;2023-03-25T01:39:51;10.77;;;5.07;;
69253;SDS011;56364;41.816;12.448;2023-03-25T01:42:17;12.45;;;5.85;;
69253;SDS011;56364;41.816;12.448;2023-03-25T01:47:10;10.65;;;4.38;;
69253;SDS011;56364;41.816;12.448;2023-03-25T01:49:38;11.90;;;5.50;;
69253;SDS011;56364;41.816;12.448;2023-03-25T01:52:10;15.32;;;4.93;;
69253;SDS011;56364;41.816;12.448;2023-03-25T01:54:37;10.50;;;5.13;;
69253;SDS011;56364;41.816;12.448;2023-03-25T01:57:04;12.32;;;4.57;;
69253;SDS011;56364;41.816;12.448;2023-03-25T01:59:31;10.50;;;5.03;;
69253;SDS011;56364;41.816;12.448;2023-03-25T02:01:58;9.75;;;4.90;;
69253;SDS011;56364;41.816;12.448;2023-03-25T02:04:49;9.45;;;4.72;;
69253;SDS011;56364;41.816;12.448;2023-03-25T02:07:15;10.13;;;4.63;;
69253;SDS011;56364;41.816;12.448;2023-03-25T02:09:43;13.38;;;5.22;;
69253;SDS011;56364;41.816;12.448;2023-03-25T02:12:16;10.75;;;4.68;;
69253;SDS011;56364;41.816;12.448;2023-03-25T02:14:47;10.73;;;4.93;;
69253;SDS011;56364;41.816;12.448;2023-03-25T02:17:20;9.70;;;4.88;;
69253;SDS011;56364;41.816;12.448;2023-03-25T02:47:35;10.38;;;5.07;;
69253;SDS011;56364;41.816;12.448;2023-03-25T02:50:15;13.70;;;5.40;;
69253;SDS011;56364;41.816;12.448;2023-03-25T02:52:43;13.90;;;5.97;;
69253;SDS011;56364;41.816;12.448;2023-03-25T02:57:41;12.88;;;5.38;;
69253;SDS011;56364;41.816;12.448;2023-03-25T03:00:10;10.55;;;5.65;;
69253;SDS011;56364;41.816;12.448;2023-03-25T03:02:44;11.90;;;5.60;;
69253;SDS011;56364;41.816;12.448;2023-03-25T03:05:48;9.18;;;4.72;;
69253;SDS011;56364;41.816;12.448;2023-03-25T03:16:04;11.82;;;5.00;;
69253;SDS011;56364;41.816;12.448;2023-03-25T03:18:37;9.98;;;4.63;;
69253;SDS011;56364;41.816;12.448;2023-03-25T03:23:50;14.30;;;5.20;;
69253;SDS011;56364;41.816;12.448;2023-03-25T03:28:57;9.90;;;4.45;;
69253;SDS011;56364;41.816;12.448;2023-03-25T03:44:21;13.93;;;5.28;;
69253;SDS011;56364;41.816;12.448;2023-03-25T03:47:03;13.27;;;5.78;;
69253;SDS011;56364;41.816;12.448;2023-03-25T03:49:35;11.95;;;4.97;;
69253;SDS011;56364;41.816;12.448;2023-03-25T03:52:07;13.40;;;4.60;;
69253;SDS011;56364;41.816;12.448;2023-03-25T03:54:49;14.98;;;5.63;;
69253;SDS011;56364;41.816;12.448;2023-03-25T04:04:51;14.68;;;4.68;;
69253;SDS011;56364;41.816;12.448;2023-03-25T04:07:21;10.55;;;5.40;;
69253;SDS011;56364;41.816;12.448;2023-03-25T04:10:28;10.98;;;4.90;;
69253;SDS011;56364;41.816;12.448;2023-03-25T04:12:47;11.77;;;5.53;;
69253;SDS011;56364;41.816;12.448;2023-03-25T04:15:15;13.63;;;6.25;;
69253;SDS011;56364;41.816;12.448;2023-03-25T04:20:09;11.77;;;4.78;;
69253;SDS011;56364;41.816;12.448;2023-03-25T04:22:38;13.55;;;5.53;;
69253;SDS011;56364;41.816;12.448;2023-03-25T04:25:09;15.73;;;5.93;;
69253;SDS011;56364;41.816;12.448;2023-03-25T04:27:36;14.75;;;5.88;;
69253;SDS011;56364;41.816;12.448;2023-03-25T04:30:06;13.85;;;6.18;;
69253;SDS011;56364;41.816;12.448;2023-03-25T04:32:32;8.65;;;4.45;;
69253;SDS011;56364;41.816;12.448;2023-03-25T04:35:15;10.85;;;6.00;;
69253;SDS011;56364;41.816;12.448;2023-03-25T04:40:39;19.00;;;6.57;;
69253;SDS011;56364;41.816;12.448;2023-03-25T05:01:25;13.48;;;6.00;;
69253;SDS011;56364;41.816;12.448;2023-03-25T05:04:03;18.40;;;6.40;;
69253;SDS011;56364;41.816;12.448;2023-03-25T05:06:36;12.93;;;5.90;;
69253;SDS011;56364;41.816;12.448;2023-03-25T05:09:03;15.60;;;5.85;;
69253;SDS011;56364;41.816;12.448;2023-03-25T05:11:45;16.80;;;6.05;;
69253;SDS011;56364;41.816;12.448;2023-03-25T05:14:18;13.73;;;6.40;;
69253;SDS011;56364;41.816;12.448;2023-03-25T05:16:45;15.70;;;5.45;;
69253;SDS011;56364;41.816;12.448;2023-03-25T05:21:39;14.27;;;5.40;;
69253;SDS011;56364;41.816;12.448;2023-03-25T05:34:28;11.52;;;5.38;;
69253;SDS011;56364;41.816;12.448;2023-03-25T05:36:55;15.00;;;5.80;;
69253;SDS011;56364;41.816;12.448;2023-03-25T05:39:24;13.38;;;5.13;;
69253;SDS011;56364;41.816;12.448;2023-03-25T05:41:54;11.75;;;5.50;;
69253;SDS011;56364;41.816;12.448;2023-03-25T05:44:20;12.40;;;5.78;;
69253;SDS011;56364;41.816;12.448;2023-03-25T05:46:46;14.35;;;6.10;;
69253;SDS011;56364;41.816;12.448;2023-03-25T05:49:12;13.32;;;5.88;;
69253;SDS011;56364;41.816;12.448;2023-03-25T05:56:43;16.77;;;5.38;;
69253;SDS011;56364;41.816;12.448;2023-03-25T05:59:29;14.07;;;6.20;;
69253;SDS011;56364;41.816;12.448;2023-03-25T06:01:58;12.63;;;5.55;;
69253;SDS011;56364;41.816;12.448;2023-03-25T06:04:24;13.05;;;5.57;;
69253;SDS011;56364;41.816;12.448;2023-03-25T06:06:56;12.48;;;6.03;;
69253;SDS011;56364;41.816;12.448;2023-03-25T06:09:22;15.23;;;5.45;;
69253;SDS011;56364;41.816;12.448;2023-03-25T06:12:03;12.63;;;6.07;;
69253;SDS011;56364;41.816;12.448;2023-03-25T06:14:29;10.38;;;5.22;;
69253;SDS011;56364;41.816;12.448;2023-03-25T06:16:56;13.88;;;5.68;;
69253;SDS011;56364;41.816;12.448;2023-03-25T06:20:00;13.18;;;5.55;;
69253;SDS011;56364;41.816;12.448;2023-03-25T06:22:32;11.40;;;5.22;;
69253;SDS011;56364;41.816;12.448;2023-03-25T06:25:03;15.57;;;5.20;;
69253;SDS011;56364;41.816;12.448;2023-03-25T06:27:29;11.88;;;5.65;;
69253;SDS011;56364;41.816;12.448;2023-03-25T06:35:17;15.57;;;5.65;;
69253;SDS011;56364;41.816;12.448;2023-03-25T06:37:44;17.88;;;5.63;;
69253;SDS011;56364;41.816;12.448;2023-03-25T06:40:19;13.80;;;5.50;;
69253;SDS011;56364;41.816;12.448;2023-03-25T06:42:46;10.20;;;5.13;;
69253;SDS011;56364;41.816;12.448;2023-03-25T06:45:13;13.60;;;5.65;;
69253;SDS011;56364;41.816;12.448;2023-03-25T06:47:48;10.65;;;5.05;;
69253;SDS011;56364;41.816;12.448;2023-03-25T06:50:14;15.00;;;5.53;;
69253;SDS011;56364;41.816;12.448;2023-03-25T06:52:40;12.48;;;5.28;;
69253;SDS011;56364;41.816;12.448;2023-03-25T06:55:12;10.93;;;4.90;;
69253;SDS011;56364;41.816;12.448;2023-03-25T06:57:38;10.25;;;5.25;;
69253;SDS011;56364;41.816;12.448;2023-03-25T07:00:06;10.32;;;4.88;;
69253;SDS011;56364;41.816;12.448;2023-03-25T07:02:37;8.63;;;4.40;;
69253;SDS011;56364;41.816;12.448;2023-03-25T07:05:04;10.57;;;4.38;;
69253;SDS011;56364;41.816;12.448;2023-03-25T07:07:30;8.73;;;3.88;;
69253;SDS011;56364;41.816;12.448;2023-03-25T07:09:56;8.48;;;4.00;;
69253;SDS011;56364;41.816;12.448;2023-03-25T07:12:43;7.03;;;3.38;;
69253;SDS011;56364;41.816;12.448;2023-03-25T07:15:37;8.48;;;3.83;;
69253;SDS011;56364;41.816;12.448;2023-03-25T07:21:15;8.95;;;4.10;;
69253;SDS011;56364;41.816;12.448;2023-03-25T07:23:50;8.10;;;3.90;;
69253;SDS011;56364;41.816;12.448;2023-03-25T07:26:17;9.98;;;3.53;;
69253;SDS011;56364;41.816;12.448;2023-03-25T07:31:10;5.53;;;3.08;;
69253;SDS011;56364;41.816;12.448;2023-03-25T07:33:37;7.57;;;3.13;;
69253;SDS011;56364;41.816;12.448;2023-03-25T07:36:31;5.30;;;2.90;;
69253;SDS011;56364;41.816;12.448;2023-03-25T07:38:57;4.82;;;2.50;;
69253;SDS011;56364;41.816;12.448;2023-03-25T07:41:23;5.75;;;3.05;;
69253;SDS011;56364;41.816;12.448;2023-03-25T07:43:49;5.07;;;2.78;;
69253;SDS011;56364;41.816;12.448;2023-03-25T07:46:15;3.83;;;2.30;;
69253;SDS011;56364;41.816;12.448;2023-03-25T07:48:41;5.15;;;2.78;;
69253;SDS011;56364;41.816;12.448;2023-03-25T07:51:07;5.82;;;2.40;;
69253;SDS011;56364;41.816;12.448;2023-03-25T07:53:34;7.45;;;2.47;;
69253;SDS011;56364;41.816;12.448;2023-03-25T07:56:07;8.85;;;2.90;;
69253;SDS011;56364;41.816;12.448;2023-03-25T07:58:39;8.30;;;3.10;;
69253;SDS011;56364;41.816;12.448;2023-03-25T08:01:06;8.73;;;2.83;;
69253;SDS011;56364;41.816;12.448;2023-03-25T08:05:59;4.90;;;2.38;;
69253;SDS011;56364;41.816;12.448;2023-03-25T08:08:26;6.20;;;3.00;;
69253;SDS011;56364;41.816;12.448;2023-03-25T08:10:54;5.78;;;2.95;;
69253;SDS011;56364;41.816;12.448;2023-03-25T08:13:20;5.60;;;2.70;;
69253;SDS011;56364;41.816;12.448;2023-03-25T08:15:47;5.97;;;2.70;;
69253;SDS011;56364;41.816;12.448;2023-03-25T08:18:13;7.05;;;3.08;;
69253;SDS011;56364;41.816;12.448;2023-03-25T08:20:39;6.85;;;2.35;;
69253;SDS011;56364;41.816;12.448;2023-03-25T08:23:05;8.75;;;2.47;;
69253;SDS011;56364;41.816;12.448;2023-03-25T08:25:35;3.15;;;2.00;;
69253;SDS011;56364;41.816;12.448;2023-03-25T08:28:19;13.80;;;2.67;;
69253;SDS011;56364;41.816;12.448;2023-03-25T08:30:49;4.93;;;2.50;;
69253;SDS011;56364;41.816;12.448;2023-03-25T08:33:19;4.03;;;2.42;;
69253;SDS011;56364;41.816;12.448;2023-03-25T08:35:47;6.25;;;2.63;;
69253;SDS011;56364;41.816;12.448;2023-03-25T08:38:15;4.28;;;2.30;;
69253;SDS011;56364;41.816;12.448;2023-03-25T08:40:41;6.20;;;3.13;;
69253;SDS011;56364;41.816;12.448;2023-03-25T08:43:09;6.60;;;2.60;;
69253;SDS011;56364;41.816;12.448;2023-03-25T08:45:35;5.82;;;2.80;;
69253;SDS011;56364;41.816;12.448;2023-03-25T08:48:01;6.95;;;2.83;;
69253;SDS011;56364;41.816;12.448;2023-03-25T08:50:28;4.53;;;2.47;;
69253;SDS011;56364;41.816;12.448;2023-03-25T08:53:01;4.85;;;2.53;;
69253;SDS011;56364;41.816;12.448;2023-03-25T08:55:28;6.05;;;2.83;;
69253;SDS011;56364;41.816;12.448;2023-03-25T08:57:53;4.38;;;2.65;;
69253;SDS011;56364;41.816;12.448;2023-03-25T09:00:20;4.95;;;2.53;;
69253;SDS011;56364;41.816;12.448;2023-03-25T09:02:48;5.60;;;2.15;;
69253;SDS011;56364;41.816;12.448;2023-03-25T09:07:41;6.05;;;2.20;;
69253;SDS011;56364;41.816;12.448;2023-03-25T09:10:07;2.92;;;1.80;;
69253;SDS011;56364;41.816;12.448;2023-03-25T09:12:33;3.83;;;1.88;;
69253;SDS011;56364;41.816;12.448;2023-03-25T09:15:03;3.78;;;1.70;;
69253;SDS011;56364;41.816;12.448;2023-03-25T09:17:30;6.18;;;2.20;;
69253;SDS011;56364;41.816;12.448;2023-03-25T09:19:59;5.35;;;1.73;;
69253;SDS011;56364;41.816;12.448;2023-03-25T09:22:25;4.95;;;2.17;;
69253;SDS011;56364;41.816;12.448;2023-03-25T09:27:23;4.15;;;2.00;;
69253;SDS011;56364;41.816;12.448;2023-03-25T09:29:58;2.83;;;1.58;;
69253;SDS011;56364;41.816;12.448;2023-03-25T09:32:28;3.83;;;1.52;;
69253;SDS011;56364;41.816;12.448;2023-03-25T09:34:54;6.15;;;2.33;;
69253;SDS011;56364;41.816;12.448;2023-03-25T09:37:20;4.00;;;1.88;;
69253;SDS011;56364;41.816;12.448;2023-03-25T09:42:21;7.57;;;2.55;;
69253;SDS011;56364;41.816;12.448;2023-03-25T09:44:54;5.30;;;2.10;;
69253;SDS011;56364;41.816;12.448;2023-03-25T09:47:25;4.90;;;2.17;;
69253;SDS011;56364;41.816;12.448;2023-03-25T09:49:57;5.03;;;2.00;;
69253;SDS011;56364;41.816;12.448;2023-03-25T09:52:25;3.22;;;1.90;;
69253;SDS011;56364;41.816;12.448;2023-03-25T09:54:58;3.15;;;1.98;;
69253;SDS011;56364;41.816;12.448;2023-03-25T09:57:26;3.80;;;1.90;;
69253;SDS011;56364;41.816;12.448;2023-03-25T09:59:53;3.22;;;1.85;;
69253;SDS011;56364;41.816;12.448;2023-03-25T10:17:54;5.40;;;2.17;;
69253;SDS011;56364;41.816;12.448;2023-03-25T10:20:39;2.28;;;1.52;;
69253;SDS011;56364;41.816;12.448;2023-03-25T10:25:42;5.43;;;1.90;;
69253;SDS011;56364;41.816;12.448;2023-03-25T10:28:11;4.32;;;1.80;;
69253;SDS011;56364;41.816;12.448;2023-03-25T10:30:41;2.55;;;1.55;;
69253;SDS011;56364;41.816;12.448;2023-03-25T10:33:44;3.45;;;1.98;;
69253;SDS011;56364;41.816;12.448;2023-03-25T10:36:09;5.72;;;2.10;;
69253;SDS011;56364;41.816;12.448;2023-03-25T10:38:47;3.55;;;1.65;;
69253;SDS011;56364;41.816;12.448;2023-03-25T10:41:23;4.95;;;2.10;;
69253;SDS011;56364;41.816;12.448;2023-03-25T10:43:55;9.05;;;1.92;;
69253;SDS011;56364;41.816;12.448;2023-03-25T10:48:47;6.05;;;1.83;;
69253;SDS011;56364;41.816;12.448;2023-03-25T10:51:38;2.40;;;1.75;;
69253;SDS011;56364;41.816;12.448;2023-03-25T10:54:07;5.07;;;1.88;;
69253;SDS011;56364;41.816;12.448;2023-03-25T10:56:35;3.55;;;2.00;;
69253;SDS011;56364;41.816;12.448;2023-03-25T11:02:18;7.68;;;2.22;;
69253;SDS011;56364;41.816;12.448;2023-03-25T11:04:44;4.93;;;2.22;;
69253;SDS011;56364;41.816;12.448;2023-03-25T11:07:43;2.40;;;1.48;;
69253;SDS011;56364;41.816;12.448;2023-03-25T11:10:16;12.85;;;2.30;;
69253;SDS011;56364;41.816;12.448;2023-03-25T11:12:43;8.73;;;1.90;;
69253;SDS011;56364;41.816;12.448;2023-03-25T11:15:16;10.48;;;1.90;;
69253;SDS011;56364;41.816;12.448;2023-03-25T11:17:45;2.70;;;1.70;;
69253;SDS011;56364;41.816;12.448;2023-03-25T11:20:24;6.60;;;2.00;;
69253;SDS011;56364;41.816;12.448;2023-03-25T11:22:52;5.53;;;1.95;;
69253;SDS011;56364;41.816;12.448;2023-03-25T11:25:22;8.18;;;1.95;;
69253;SDS011;56364;41.816;12.448;2023-03-25T11:27:56;5.68;;;2.00;;
69253;SDS011;56364;41.816;12.448;2023-03-25T11:30:23;2.95;;;1.83;;
69253;SDS011;56364;41.816;12.448;2023-03-25T11:35:41;6.85;;;1.70;;
69253;SDS011;56364;41.816;12.448;2023-03-25T11:38:15;4.50;;;1.63;;
69253;SDS011;56364;41.816;12.448;2023-03-25T11:40:53;6.95;;;2.20;;
69253;SDS011;56364;41.816;12.448;2023-03-25T11:43:20;3.65;;;1.85;;
69253;SDS011;56364;41.816;12.448;2023-03-25T11:45:47;5.78;;;1.75;;
69253;SDS011;56364;41.816;12.448;2023-03-25T11:48:15;3.72;;;1.73;;
69253;SDS011;56364;41.816;12.448;2023-03-25T11:50:46;3.65;;;1.92;;
69253;SDS011;56364;41.816;12.448;2023-03-25T11:53:17;5.25;;;1.92;;
69253;SDS011;56364;41.816;12.448;2023-03-25T11:55:47;4.10;;;1.80;;
69253;SDS011;56364;41.816;12.448;2023-03-25T11:58:14;3.85;;;1.88;;
69253;SDS011;56364;41.816;12.448;2023-03-25T12:00:41;6.18;;;2.25;;
69253;SDS011;56364;41.816;12.448;2023-03-25T12:05:42;6.43;;;2.65;;
69253;SDS011;56364;41.816;12.448;2023-03-25T12:08:13;6.85;;;1.70;;
69253;SDS011;56364;41.816;12.448;2023-03-25T12:23:43;5.63;;;1.80;;
69253;SDS011;56364;41.816;12.448;2023-03-25T12:26:12;4.13;;;1.55;;
69253;SDS011;56364;41.816;12.448;2023-03-25T12:41:41;5.80;;;1.65;;
69253;SDS011;56364;41.816;12.448;2023-03-25T12:54:33;4.13;;;1.50;;
69253;SDS011;56364;41.816;12.448;2023-03-25T12:57:19;2.38;;;1.40;;
69253;SDS011;56364;41.816;12.448;2023-03-25T13:05:16;5.38;;;1.50;;
69253;SDS011;56364;41.816;12.448;2023-03-25T13:10:20;3.88;;;1.77;;
69253;SDS011;56364;41.816;12.448;2023-03-25T13:12:56;6.05;;;1.50;;
69253;SDS011;56364;41.816;12.448;2023-03-25T13:15:34;5.68;;;1.60;;
69253;SDS011;56364;41.816;12.448;2023-03-25T13:20:50;5.25;;;1.55;;
69253;SDS011;56364;41.816;12.448;2023-03-25T13:23:22;5.53;;;1.80;;
69253;SDS011;56364;41.816;12.448;2023-03-25T13:26:05;4.40;;;1.77;;
69253;SDS011;56364;41.816;12.448;2023-03-25T13:31:18;3.60;;;1.45;;
69253;SDS011;56364;41.816;12.448;2023-03-25T13:36:42;8.73;;;2.15;;
69253;SDS011;56364;41.816;12.448;2023-03-25T13:39:14;6.88;;;1.70;;
69253;SDS011;56364;41.816;12.448;2023-03-25T13:44:40;3.25;;;1.63;;
69253;SDS011;56364;41.816;12.448;2023-03-25T13:52:40;7.57;;;2.60;;
69253;SDS011;56364;41.816;12.448;2023-03-25T13:55:51;8.23;;;2.45;;
69253;SDS011;56364;41.816;12.448;2023-03-25T13:58:06;7.25;;;1.98;;
69253;SDS011;56364;41.816;12.448;2023-03-25T14:00:42;5.10;;;2.10;;
69253;SDS011;56364;41.816;12.448;2023-03-25T14:16:56;4.10;;;1.50;;
69253;SDS011;56364;41.816;12.448;2023-03-25T14:19:35;11.10;;;2.25;;
69253;SDS011;56364;41.816;12.448;2023-03-25T14:22:19;5.50;;;1.63;;
69253;SDS011;56364;41.816;12.448;2023-03-25T14:24:52;10.93;;;2.47;;
69253;SDS011;56364;41.816;12.448;2023-03-25T14:27:50;8.95;;;2.08;;
69253;SDS011;56364;41.816;12.448;2023-03-25T14:30:23;4.70;;;1.45;;
69253;SDS011;56364;41.816;12.448;2023-03-25T14:32:51;5.07;;;1.80;;
69253;SDS011;56364;41.816;12.448;2023-03-25T14:48:33;7.70;;;1.88;;
69253;SDS011;56364;41.816;12.448;2023-03-25T14:51:21;5.78;;;1.70;;
69253;SDS011;56364;41.816;12.448;2023-03-25T14:56:35;4.43;;;1.63;;
69253;SDS011;56364;41.816;12.448;2023-03-25T14:59:11;5.90;;;1.85;;
69253;SDS011;56364;41.816;12.448;2023-03-25T15:01:40;4.25;;;1.77;;
69253;SDS011;56364;41.816;12.448;2023-03-25T15:04:12;4.82;;;1.88;;
69253;SDS011;56364;41.816;12.448;2023-03-25T15:06:39;6.60;;;2.30;;
69253;SDS011;56364;41.816;12.448;2023-03-25T15:09:06;6.60;;;1.58;;
69253;SDS011;56364;41.816;12.448;2023-03-25T15:11:35;8.88;;;2.42;;
69253;SDS011;56364;41.816;12.448;2023-03-25T15:14:08;3.83;;;1.45;;
69253;SDS011;56364;41.816;12.448;2023-03-25T15:22:21;6.35;;;1.85;;
69253;SDS011;56364;41.816;12.448;2023-03-25T15:24:51;8.25;;;1.90;;
69253;SDS011;56364;41.816;12.448;2023-03-25T15:27:35;7.63;;;1.80;;
69253;SDS011;56364;41.816;12.448;2023-03-25T15:30:08;7.47;;;1.90;;
69253;SDS011;56364;41.816;12.448;2023-03-25T15:43:42;6.13;;;2.00;;
69253;SDS011;56364;41.816;12.448;2023-03-25T16:02:52;4.28;;;1.60;;
69253;SDS011;56364;41.816;12.448;2023-03-25T16:05:19;6.18;;;1.95;;
69253;SDS011;56364;41.816;12.448;2023-03-25T16:07:46;5.82;;;1.58;;
69253;SDS011;56364;41.816;12.448;2023-03-25T16:10:36;7.03;;;1.92;;
69253;SDS011;56364;41.816;12.448;2023-03-25T16:13:10;11.02;;;1.95;;
69253;SDS011;56364;41.816;12.448;2023-03-25T16:15:37;8.45;;;1.83;;
69253;SDS011;56364;41.816;12.448;2023-03-25T16:20:38;10.82;;;1.73;;
69253;SDS011;56364;41.816;12.448;2023-03-25T16:23:06;8.98;;;1.88;;
69253;SDS011;56364;41.816;12.448;2023-03-25T16:25:35;9.77;;;1.83;;
69253;SDS011;56364;41.816;12.448;2023-03-25T16:28:07;7.53;;;2.25;;
69253;SDS011;56364;41.816;12.448;2023-03-25T16:30:39;4.72;;;2.00;;
69253;SDS011;56364;41.816;12.448;2023-03-25T16:35:35;11.40;;;2.25;;
69253;SDS011;56364;41.816;12.448;2023-03-25T16:38:02;10.30;;;2.03;;
69253;SDS011;56364;41.816;12.448;2023-03-25T16:40:35;14.77;;;2.58;;
69253;SDS011;56364;41.816;12.448;2023-03-25T16:43:03;11.27;;;2.47;;
69253;SDS011;56364;41.816;12.448;2023-03-25T16:45:30;10.40;;;2.38;;
69253;SDS011;56364;41.816;12.448;2023-03-25T16:47:56;16.63;;;2.42;;
69253;SDS011;56364;41.816;12.448;2023-03-25T16:50:24;13.82;;;2.65;;
69253;SDS011;56364;41.816;12.448;2023-03-25T16:52:50;11.48;;;2.15;;
69253;SDS011;56364;41.816;12.448;2023-03-25T16:55:27;12.95;;;2.75;;
69253;SDS011;56364;41.816;12.448;2023-03-25T16:57:54;10.10;;;2.38;;
69253;SDS011;56364;41.816;12.448;2023-03-25T17:00:22;17.85;;;2.80;;
69253;SDS011;56364;41.816;12.448;2023-03-25T17:02:48;10.27;;;2.58;;
69253;SDS011;56364;41.816;12.448;2023-03-25T17:05:25;12.02;;;2.63;;
69253;SDS011;56364;41.816;12.448;2023-03-25T17:08:00;10.38;;;2.42;;
69253;SDS011;56364;41.816;12.448;2023-03-25T17:10:32;19.65;;;2.83;;
69253;SDS011;56364;41.816;12.448;2023-03-25T17:13:07;11.63;;;2.50;;
69253;SDS011;56364;41.816;12.448;2023-03-25T17:18:19;10.70;;;2.22;;
69253;SDS011;56364;41.816;12.448;2023-03-25T17:20:48;21.65;;;3.20;;
69253;SDS011;56364;41.816;12.448;2023-03-25T17:25:52;14.07;;;3.15;;
69253;SDS011;56364;41.816;12.448;2023-03-25T17:28:24;16.92;;;2.88;;
69253;SDS011;56364;41.816;12.448;2023-03-25T17:30:52;16.17;;;2.92;;
69253;SDS011;56364;41.816;12.448;2023-03-25T17:38:17;10.63;;;2.53;;
69253;SDS011;56364;41.816;12.448;2023-03-25T17:40:46;9.13;;;2.75;;
69253;SDS011;56364;41.816;12.448;2023-03-25T17:43:21;15.68;;;2.33;;
69253;SDS011;56364;41.816;12.448;2023-03-25T17:45:49;12.23;;;2.00;;
69253;SDS011;56364;41.816;12.448;2023-03-25T17:48:17;14.65;;;2.17;;
69253;SDS011;56364;41.816;12.448;2023-03-25T17:50:50;6.85;;;2.60;;
69253;SDS011;56364;41.816;12.448;2023-03-25T17:53:17;15.32;;;2.40;;
69253;SDS011;56364;41.816;12.448;2023-03-25T17:58:20;18.20;;;2.97;;
69253;SDS011;56364;41.816;12.448;2023-03-25T18:03:22;13.80;;;2.53;;
69253;SDS011;56364;41.816;12.448;2023-03-25T18:05:49;17.30;;;3.42;;
69253;SDS011;56364;41.816;12.448;2023-03-25T18:08:18;16.00;;;2.85;;
69253;SDS011;56364;41.816;12.448;2023-03-25T18:10:45;11.68;;;3.33;;
69253;SDS011;56364;41.816;12.448;2023-03-25T18:13:11;22.08;;;2.70;;
69253;SDS011;56364;41.816;12.448;2023-03-25T18:15:38;15.20;;;3.17;;
69253;SDS011;56364;41.816;12.448;2023-03-25T18:18:10;16.80;;;2.63;;
69253;SDS011;56364;41.816;12.448;2023-03-25T18:20:39;18.42;;;2.90;;
69253;SDS011;56364;41.816;12.448;2023-03-25T18:23:12;15.68;;;2.38;;
69253;SDS011;56364;41.816;12.448;2023-03-25T18:25:39;15.15;;;2.75;;
69253;SDS011;56364;41.816;12.448;2023-03-25T18:28:05;18.48;;;3.75;;
69253;SDS011;56364;41.816;12.448;2023-03-25T18:32:59;6.72;;;2.15;;
69253;SDS011;56364;41.816;12.448;2023-03-25T18:38:22;8.07;;;1.98;;
69253;SDS011;56364;41.816;12.448;2023-03-25T18:40:49;24.85;;;3.10;;
69253;SDS011;56364;41.816;12.448;2023-03-25T18:45:42;22.92;;;3.53;;
69253;SDS011;56364;41.816;12.448;2023-03-25T18:48:10;13.23;;;3.17;;
69253;SDS011;56364;41.816;12.448;2023-03-25T18:50:37;22.85;;;3.63;;
69253;SDS011;56364;41.816;12.448;2023-03-25T18:53:04;18.85;;;3.00;;
69253;SDS011;56364;41.816;12.448;2023-03-25T18:55:31;28.40;;;3.63;;
69253;SDS011;56364;41.816;12.448;2023-03-25T18:57:57;13.95;;;3.40;;
69253;SDS011;56364;41.816;12.448;2023-03-25T19:02:51;14.57;;;2.80;;
69253;SDS011;56364;41.816;12.448;2023-03-25T19:05:20;21.52;;;2.92;;
69253;SDS011;56364;41.816;12.448;2023-03-25T19:07:46;19.10;;;2.70;;
69253;SDS011;56364;41.816;12.448;2023-03-25T19:10:21;12.20;;;3.10;;
69253;SDS011;56364;41.816;12.448;2023-03-25T19:12:50;22.95;;;3.10;;
69253;SDS011;56364;41.816;12.448;2023-03-25T19:15:17;13.13;;;3.33;;
69253;SDS011;56364;41.816;12.448;2023-03-25T19:23:36;20.10;;;3.30;;
69253;SDS011;56364;41.816;12.448;2023-03-25T19:26:28;18.08;;;3.00;;
69253;SDS011;56364;41.816;12.448;2023-03-25T19:34:39;9.38;;;2.45;;
69253;SDS011;56364;41.816;12.448;2023-03-25T19:37:21;14.40;;;3.00;;
69253;SDS011;56364;41.816;12.448;2023-03-25T19:45:08;18.75;;;3.35;;
69253;SDS011;56364;41.816;12.448;2023-03-25T19:47:37;17.77;;;2.75;;
69253;SDS011;56364;41.816;12.448;2023-03-25T19:50:13;21.23;;;2.92;;
69253;SDS011;56364;41.816;12.448;2023-03-25T19:52:55;15.65;;;2.72;;
69253;SDS011;56364;41.816;12.448;2023-03-25T19:55:21;13.95;;;2.50;;
69253;SDS011;56364;41.816;12.448;2023-03-25T19:57:48;18.27;;;3.22;;
69253;SDS011;56364;41.816;12.448;2023-03-25T20:00:16;14.13;;;2.78;;
69253;SDS011;56364;41.816;12.448;2023-03-25T20:02:50;16.50;;;2.80;;
69253;SDS011;56364;41.816;12.448;2023-03-25T20:05:17;13.38;;;3.30;;
69253;SDS011;56364;41.816;12.448;2023-03-25T20:07:44;16.08;;;2.60;;
69253;SDS011;56364;41.816;12.448;2023-03-25T20:10:12;13.57;;;3.08;;
69253;SDS011;56364;41.816;12.448;2023-03-25T20:12:48;11.68;;;2.47;;
69253;SDS011;56364;41.816;12.448;2023-03-25T20:15:18;17.15;;;3.80;;
69253;SDS011;56364;41.816;12.448;2023-03-25T20:17:44;14.38;;;3.20;;
69253;SDS011;56364;41.816;12.448;2023-03-25T20:22:40;13.57;;;2.92;;
69253;SDS011;56364;41.816;12.448;2023-03-25T20:25:08;18.13;;;3.65;;
69253;SDS011;56364;41.816;12.448;2023-03-25T20:27:34;11.02;;;2.63;;
69253;SDS011;56364;41.816;12.448;2023-03-25T20:32:26;15.73;;;2.55;;
69253;SDS011;56364;41.816;12.448;2023-03-25T20:34:52;19.77;;;3.58;;
69253;SDS011;56364;41.816;12.448;2023-03-25T20:39:56;18.95;;;3.58;;
69253;SDS011;56364;41.816;12.448;2023-03-25T20:44:58;15.73;;;2.78;;
69253;SDS011;56364;41.816;12.448;2023-03-25T20:47:24;17.83;;;4.13;;
69253;SDS011;56364;41.816;12.448;2023-03-25T20:49:50;16.55;;;3.40;;
69253;SDS011;56364;41.816;12.448;2023-03-25T20:52:16;19.15;;;4.30;;
69253;SDS011;56364;41.816;12.448;2023-03-25T20:54:42;17.30;;;3.65;;